createdAt,value
2018-07-26T00:01:33.627Z,11.53
2018-07-26T00:04:01.901Z,7.43
2018-07-26T00:06:30.166Z,5.87
2018-07-26T00:08:58.421Z,7.27
2018-07-26T00:11:26.648Z,6.27
2018-07-26T00:13:55.005Z,7.87
2018-07-26T00:16:23.229Z,8.00
2018-07-26T00:18:51.490Z,8.03
2018-07-26T00:21:19.429Z,7.13
2018-07-26T00:23:47.720Z,10.57
2018-07-26T00:26:15.946Z,7.10
2018-07-26T00:28:44.671Z,7.17
2018-07-26T00:31:12.886Z,8.60
2018-07-26T00:33:42.053Z,7.77
2018-07-26T00:36:10.257Z,8.87
2018-07-26T00:38:38.495Z,7.57
2018-07-26T00:41:06.707Z,10.57
2018-07-26T00:43:34.916Z,10.93
2018-07-26T00:46:03.122Z,8.90
2018-07-26T00:48:31.356Z,7.20
2018-07-26T00:50:59.573Z,9.20
2018-07-26T00:53:27.855Z,12.83
2018-07-26T00:55:56.225Z,11.70
2018-07-26T00:58:24.440Z,8.20
2018-07-26T01:00:52.617Z,9.97
2018-07-26T01:06:21.155Z,12.07
2018-07-26T01:08:49.364Z,9.83
2018-07-26T01:11:17.580Z,13.20
2018-07-26T01:13:45.945Z,11.03
2018-07-26T01:16:14.159Z,9.40
2018-07-26T01:18:42.349Z,12.37
2018-07-26T01:21:10.546Z,9.73
2018-07-26T01:23:38.935Z,10.37
2018-07-26T01:26:07.135Z,10.57
2018-07-26T01:28:35.318Z,12.60
2018-07-26T01:31:03.604Z,11.37
2018-07-26T01:33:31.836Z,9.57
2018-07-26T01:36:00.074Z,10.80
2018-07-26T01:38:28.274Z,11.50
2018-07-26T01:40:56.673Z,10.00
2018-07-26T01:43:48.163Z,10.27
2018-07-26T01:46:16.860Z,10.37
2018-07-26T01:48:45.082Z,9.43
2018-07-26T01:51:13.822Z,10.80
2018-07-26T01:53:42.566Z,13.97
2018-07-26T01:58:45.556Z,10.80
2018-07-26T02:01:14.122Z,12.07
2018-07-26T02:03:42.478Z,11.40
2018-07-26T02:06:10.858Z,9.90
2018-07-26T02:08:39.080Z,12.53
2018-07-26T02:11:07.147Z,12.07
2018-07-26T02:13:35.353Z,9.80
2018-07-26T02:16:03.553Z,13.03
2018-07-26T02:18:31.767Z,14.10
2018-07-26T02:20:59.991Z,11.43
2018-07-26T02:23:28.185Z,11.73
2018-07-26T02:25:56.430Z,11.93
2018-07-26T02:28:24.629Z,12.07
2018-07-26T02:30:52.870Z,11.43
2018-07-26T02:33:21.080Z,11.47
2018-07-26T02:35:49.363Z,11.38
2018-07-26T02:38:17.576Z,10.60
2018-07-26T02:40:45.853Z,11.03
2018-07-26T02:43:14.088Z,13.23
2018-07-26T02:45:42.573Z,11.40
2018-07-26T02:48:10.782Z,11.77
2018-07-26T02:50:39.055Z,14.00
2018-07-26T02:53:07.351Z,16.03
2018-07-26T02:55:35.743Z,18.00
2018-07-26T02:58:04.056Z,20.03
2018-07-26T03:00:32.260Z,20.17
2018-07-26T03:03:00.466Z,18.90
2018-07-26T03:05:28.710Z,20.40
2018-07-26T03:07:56.886Z,18.47
2018-07-26T03:10:24.894Z,16.73
2018-07-26T03:12:53.091Z,19.67
2018-07-26T03:15:21.407Z,20.67
2018-07-26T03:17:49.588Z,20.43
2018-07-26T03:20:17.783Z,18.70
2018-07-26T03:22:46.014Z,20.63
2018-07-26T03:25:14.239Z,18.63
2018-07-26T03:27:42.513Z,18.17
2018-07-26T03:30:10.735Z,18.13
2018-07-26T03:32:38.952Z,18.87
2018-07-26T03:35:07.969Z,20.00
2018-07-26T03:37:36.215Z,15.60
2018-07-26T03:40:05.246Z,18.10
2018-07-26T03:42:33.599Z,20.03
2018-07-26T03:45:01.885Z,19.13
2018-07-26T03:47:30.138Z,20.20
2018-07-26T03:49:58.327Z,19.77
2018-07-26T03:52:26.757Z,21.73
2018-07-26T03:54:54.984Z,19.63
2018-07-26T03:57:23.200Z,20.57
2018-07-26T03:59:51.432Z,18.53
2018-07-26T04:02:19.654Z,15.37
2018-07-26T04:04:50.015Z,16.93
2018-07-26T04:07:18.220Z,18.93
2018-07-26T04:09:46.418Z,17.87
2018-07-26T04:12:14.584Z,17.13
2018-07-26T04:14:42.805Z,17.37
2018-07-26T04:17:10.989Z,21.47
2018-07-26T04:19:39.250Z,17.87
2018-07-26T04:22:07.448Z,16.87
2018-07-26T04:24:35.721Z,19.87
2018-07-26T04:27:03.897Z,18.73
2018-07-26T04:29:32.066Z,17.80
2018-07-26T04:32:00.416Z,19.27
2018-07-26T04:34:28.631Z,16.70
2018-07-26T04:36:56.819Z,24.30
2018-07-26T04:39:25.283Z,18.40
2018-07-26T04:41:53.512Z,24.83
2018-07-26T04:44:21.921Z,17.30
2018-07-26T04:46:50.114Z,19.53
2018-07-26T04:49:18.306Z,19.10
2018-07-26T04:51:46.487Z,21.50
2018-07-26T04:54:14.806Z,20.07
2018-07-26T04:56:42.951Z,19.73
2018-07-26T04:59:11.201Z,20.50
2018-07-26T05:01:39.394Z,19.85
2018-07-26T05:04:07.610Z,20.60
2018-07-26T05:06:35.799Z,20.30
2018-07-26T05:09:06.087Z,20.30
2018-07-26T05:11:34.317Z,19.77
2018-07-26T05:14:02.985Z,21.23
2018-07-26T05:16:31.257Z,21.83
2018-07-26T05:18:59.506Z,24.40
2018-07-26T05:21:27.669Z,23.47
2018-07-26T05:23:55.977Z,22.00
2018-07-26T05:26:24.142Z,22.53
2018-07-26T05:28:52.324Z,22.43
2018-07-26T05:31:20.544Z,22.77
2018-07-26T05:33:48.817Z,21.83
2018-07-26T05:36:17.027Z,24.30
2018-07-26T05:38:45.228Z,24.80
2018-07-26T05:41:13.425Z,19.07
2018-07-26T05:43:41.488Z,22.33
2018-07-26T05:46:09.672Z,23.07
2018-07-26T05:48:37.870Z,21.47
2018-07-26T05:51:06.112Z,22.37
2018-07-26T05:53:34.300Z,24.87
2018-07-26T05:56:02.532Z,22.53
2018-07-26T05:58:30.766Z,25.87
2018-07-26T06:00:59.003Z,20.53
2018-07-26T06:03:27.232Z,22.17
2018-07-26T06:05:55.687Z,22.33
2018-07-26T06:08:23.872Z,21.53
2018-07-26T06:10:52.030Z,23.90
2018-07-26T06:13:20.258Z,20.37
2018-07-26T06:15:48.507Z,21.13
2018-07-26T06:18:16.692Z,19.37
2018-07-26T06:20:44.966Z,22.73
2018-07-26T06:23:13.217Z,21.37
2018-07-26T06:25:41.632Z,28.73
2018-07-26T06:28:09.913Z,20.17
2018-07-26T06:30:38.079Z,24.87
2018-07-26T06:33:06.326Z,18.40
2018-07-26T06:35:34.700Z,18.17
2018-07-26T06:38:02.984Z,17.50
2018-07-26T06:40:31.260Z,20.20
2018-07-26T06:42:59.462Z,21.20
2018-07-26T06:45:27.829Z,20.23
2018-07-26T06:47:56.003Z,18.90
2018-07-26T06:50:24.261Z,18.90
2018-07-26T06:52:53.145Z,21.43
2018-07-26T06:55:21.646Z,21.57
2018-07-26T06:57:49.887Z,17.53
2018-07-26T07:00:18.086Z,17.37
2018-07-26T07:02:46.362Z,18.43
2018-07-26T07:05:15.687Z,20.23
2018-07-26T07:07:43.912Z,17.90
2018-07-26T07:10:12.294Z,17.50
2018-07-26T07:12:40.522Z,16.80
2018-07-26T07:15:08.866Z,17.23
2018-07-26T07:17:37.121Z,16.10
2018-07-26T07:20:06.190Z,16.90
2018-07-26T07:22:34.495Z,16.60
2018-07-26T07:25:02.887Z,17.23
2018-07-26T07:27:31.136Z,17.80
2018-07-26T07:29:59.329Z,16.87
2018-07-26T07:32:27.553Z,17.77
2018-07-26T07:34:55.819Z,18.13
2018-07-26T07:37:24.041Z,16.83
2018-07-26T07:39:52.292Z,15.37
2018-07-26T07:42:20.614Z,16.13
2018-07-26T07:44:48.941Z,17.07
2018-07-26T07:47:17.244Z,16.83
2018-07-26T07:49:45.483Z,16.17
2018-07-26T07:52:13.724Z,16.20
2018-07-26T07:54:43.039Z,15.53
2018-07-26T07:57:11.290Z,19.00
2018-07-26T07:59:39.535Z,14.60
2018-07-26T08:02:07.728Z,13.33
2018-07-26T08:04:36.392Z,14.27
2018-07-26T08:07:04.652Z,14.87
2018-07-26T08:09:32.869Z,21.53
2018-07-26T08:12:01.144Z,16.03
2018-07-26T08:14:29.424Z,13.57
2018-07-26T08:16:57.741Z,15.23
2018-07-26T08:19:25.936Z,14.93
2018-07-26T08:21:54.196Z,12.83
2018-07-26T08:24:23.102Z,13.80
2018-07-26T08:26:51.941Z,12.63
2018-07-26T08:29:20.371Z,14.10
2018-07-26T08:31:48.591Z,10.60
2018-07-26T08:34:16.823Z,11.47
2018-07-26T08:36:51.356Z,14.43
2018-07-26T08:39:19.551Z,14.43
2018-07-26T08:41:47.824Z,11.73
2018-07-26T08:44:16.071Z,12.40
2018-07-26T08:46:44.334Z,11.17
2018-07-26T08:49:12.610Z,11.57
2018-07-26T08:51:40.860Z,9.97
2018-07-26T08:54:09.265Z,11.77
2018-07-26T08:56:37.454Z,11.27
2018-07-26T08:59:05.821Z,12.83
2018-07-26T09:01:34.216Z,10.37
2018-07-26T09:04:02.491Z,10.47
2018-07-26T09:06:30.733Z,9.50
2018-07-26T09:08:58.992Z,15.60
2018-07-26T09:11:27.271Z,10.37
2018-07-26T09:13:55.720Z,18.17
2018-07-26T09:16:23.973Z,11.47
2018-07-26T09:18:52.285Z,7.37
2018-07-26T09:21:20.591Z,11.80
2018-07-26T09:23:48.868Z,10.30
2018-07-26T09:26:17.107Z,9.00
2018-07-26T09:28:45.392Z,6.83
2018-07-26T09:31:13.568Z,8.13
2018-07-26T09:33:41.835Z,9.40
2018-07-26T09:36:10.306Z,6.50
2018-07-26T09:38:38.910Z,7.90
2018-07-26T09:41:07.311Z,7.63
2018-07-26T09:43:35.484Z,7.40
2018-07-26T09:46:03.734Z,8.63
2018-07-26T09:48:31.935Z,11.53
2018-07-26T09:51:00.218Z,8.73
2018-07-26T09:53:28.557Z,8.37
2018-07-26T09:55:56.861Z,12.60
2018-07-26T09:58:25.182Z,6.67
2018-07-26T10:00:58.855Z,9.17
2018-07-26T10:03:27.066Z,9.60
2018-07-26T10:05:55.354Z,8.63
2018-07-26T10:08:23.623Z,7.37
2018-07-26T10:10:51.899Z,7.63
2018-07-26T10:13:20.108Z,7.80
2018-07-26T10:15:48.468Z,7.23
2018-07-26T10:18:16.723Z,7.67
2018-07-26T10:20:44.945Z,7.10
2018-07-26T10:23:13.226Z,6.90
2018-07-26T10:25:41.491Z,9.47
2018-07-26T10:28:09.722Z,8.77
2018-07-26T10:30:37.708Z,12.03
2018-07-26T10:33:06.142Z,6.93
2018-07-26T10:35:34.514Z,13.00
2018-07-26T10:38:02.738Z,8.43
2018-07-26T10:40:31.002Z,6.60
2018-07-26T10:42:59.260Z,6.53
2018-07-26T10:45:27.584Z,8.33
2018-07-26T10:47:55.840Z,9.13
2018-07-26T10:50:24.149Z,6.60
2018-07-26T10:52:52.384Z,6.47
2018-07-26T10:55:20.823Z,10.23
2018-07-26T10:57:49.026Z,8.20
2018-07-26T11:00:17.333Z,6.77
2018-07-26T11:02:45.492Z,8.80
2018-07-26T11:05:13.939Z,10.07
2018-07-26T11:07:42.170Z,6.67
2018-07-26T11:10:11.359Z,9.37
2018-07-26T11:12:39.907Z,7.03
2018-07-26T11:15:27.387Z,8.60
2018-07-26T11:17:55.584Z,8.43
2018-07-26T11:20:23.812Z,7.57
2018-07-26T11:22:52.031Z,5.87
2018-07-26T11:25:20.195Z,8.03
2018-07-26T11:27:48.439Z,8.27
2018-07-26T11:30:16.907Z,4.90
2018-07-26T11:32:45.171Z,6.77
2018-07-26T11:35:13.436Z,9.70
2018-07-26T11:37:41.931Z,5.60
2018-07-26T11:40:10.228Z,4.97
2018-07-26T11:42:38.510Z,5.57
2018-07-26T11:45:07.766Z,6.47
2018-07-26T11:47:36.332Z,8.73
2018-07-26T11:50:04.859Z,4.83
2018-07-26T11:52:33.049Z,5.33
2018-07-26T11:55:01.307Z,5.83
2018-07-26T11:57:29.576Z,4.50
2018-07-26T11:59:57.797Z,14.10
2018-07-26T12:02:26.047Z,6.37
2018-07-26T12:04:55.246Z,4.83
2018-07-26T12:07:23.478Z,5.57
2018-07-26T12:09:51.660Z,5.40
2018-07-26T12:12:19.936Z,6.80
2018-07-26T12:14:48.369Z,4.53
2018-07-26T12:17:16.695Z,8.10
2018-07-26T12:19:45.013Z,4.30
2018-07-26T12:22:13.198Z,6.87
2018-07-26T12:24:41.435Z,4.33
2018-07-26T12:27:09.713Z,6.37
2018-07-26T12:29:37.912Z,4.13
2018-07-26T12:32:05.915Z,6.03
2018-07-26T12:34:34.367Z,6.57
2018-07-26T12:37:02.623Z,3.70
2018-07-26T12:39:30.873Z,5.90
2018-07-26T12:41:59.111Z,4.27
2018-07-26T12:44:27.370Z,4.90
2018-07-26T12:46:55.711Z,7.17
2018-07-26T12:49:23.922Z,4.20
2018-07-26T12:51:52.240Z,5.57
2018-07-26T12:54:20.539Z,4.50
2018-07-26T12:56:48.781Z,4.20
2018-07-26T12:59:16.983Z,5.20
2018-07-26T13:01:45.218Z,7.77
2018-07-26T13:04:13.645Z,8.70
2018-07-26T13:06:41.898Z,11.97
2018-07-26T13:09:10.568Z,10.63
2018-07-26T13:11:38.879Z,8.15
2018-07-26T13:14:08.667Z,5.57
2018-07-26T13:16:36.889Z,6.23
2018-07-26T13:19:05.057Z,6.97
2018-07-26T13:21:33.073Z,10.67
2018-07-26T13:24:01.461Z,7.37
2018-07-26T13:26:29.713Z,7.13
2018-07-26T13:28:58.011Z,5.40
2018-07-26T13:31:26.281Z,7.77
2018-07-26T13:33:54.588Z,5.93
2018-07-26T13:36:22.821Z,9.17
2018-07-26T13:38:51.019Z,5.53
2018-07-26T13:41:18.988Z,6.70
2018-07-26T13:43:48.403Z,4.93
2018-07-26T13:46:16.668Z,7.27
2018-07-26T13:48:44.862Z,6.20
2018-07-26T13:51:13.114Z,6.13
2018-07-26T13:53:41.332Z,5.23
2018-07-26T13:56:09.567Z,7.10
2018-07-26T13:58:38.129Z,7.60
2018-07-26T14:01:06.706Z,4.73
2018-07-26T14:03:35.156Z,8.47
2018-07-26T14:06:03.471Z,6.40
2018-07-26T14:08:31.737Z,7.67
2018-07-26T14:11:00.184Z,6.33
2018-07-26T14:13:28.475Z,7.53
2018-07-26T14:15:57.108Z,7.87
2018-07-26T14:18:25.231Z,6.50
2018-07-26T14:20:53.477Z,5.23
2018-07-26T14:23:27.213Z,7.77
2018-07-26T14:25:55.525Z,6.73
2018-07-26T14:28:23.741Z,5.63
2018-07-26T14:30:52.087Z,4.57
2018-07-26T14:33:20.315Z,4.50
2018-07-26T14:35:48.693Z,4.47
2018-07-26T14:38:17.086Z,4.20
2018-07-26T14:40:45.387Z,5.07
2018-07-26T14:43:14.137Z,3.60
2018-07-26T14:46:45.508Z,4.53
2018-07-26T14:49:13.748Z,4.20
2018-07-26T14:51:41.997Z,5.17
2018-07-26T14:54:10.258Z,4.67
2018-07-26T14:56:38.501Z,4.60
2018-07-26T14:59:06.720Z,4.60
2018-07-26T15:01:34.900Z,4.23
2018-07-26T15:04:03.329Z,7.70
2018-07-26T15:06:31.496Z,5.73
2018-07-26T15:08:59.832Z,5.03
2018-07-26T15:11:28.146Z,4.87
2018-07-26T15:13:56.467Z,4.77
2018-07-26T15:16:24.674Z,6.23
2018-07-26T15:18:52.854Z,4.37
2018-07-26T15:21:21.107Z,3.83
2018-07-26T15:23:49.506Z,4.20
2018-07-26T15:26:17.703Z,4.17
2018-07-26T15:28:52.290Z,4.10
2018-07-26T15:31:20.489Z,4.13
2018-07-26T15:33:49.022Z,6.40
2018-07-26T15:36:17.298Z,4.80
2018-07-26T15:38:45.573Z,6.37
2018-07-26T15:41:13.831Z,5.33
2018-07-26T15:43:42.312Z,4.90
2018-07-26T15:46:11.448Z,4.00
2018-07-26T15:48:39.702Z,3.67
2018-07-26T15:51:07.974Z,3.87
2018-07-26T15:53:36.132Z,5.57
2018-07-26T15:56:04.395Z,6.83
2018-07-26T15:58:32.594Z,4.73
2018-07-26T16:01:00.803Z,4.77
2018-07-26T16:03:29.006Z,6.27
2018-07-26T16:05:57.255Z,6.23
2018-07-26T16:08:25.429Z,3.63
2018-07-26T16:10:53.704Z,3.70
2018-07-26T16:13:21.971Z,4.40
2018-07-26T16:15:50.211Z,3.80
2018-07-26T16:18:18.493Z,4.20
2018-07-26T16:20:46.818Z,4.80
2018-07-26T16:23:15.073Z,3.20
2018-07-26T16:25:44.373Z,5.23
2018-07-26T16:28:12.578Z,3.60
2018-07-26T16:30:40.860Z,6.87
2018-07-26T16:33:09.208Z,4.17
2018-07-26T16:35:37.548Z,3.50
2018-07-26T16:38:06.065Z,5.07
2018-07-26T16:40:34.462Z,4.43
2018-07-26T16:43:02.698Z,3.57
2018-07-26T16:45:31.001Z,4.07
2018-07-26T16:47:59.280Z,5.77
2018-07-26T16:50:27.483Z,4.67
2018-07-26T16:52:55.718Z,3.23
2018-07-26T16:55:24.292Z,6.37
2018-07-26T16:57:52.519Z,3.77
2018-07-26T17:00:20.821Z,3.40
2018-07-26T17:02:49.064Z,3.83
2018-07-26T17:05:17.365Z,3.30
2018-07-26T17:07:45.609Z,3.90
2018-07-26T17:10:13.850Z,5.83
2018-07-26T17:12:42.074Z,7.53
2018-07-26T17:15:10.821Z,5.77
2018-07-26T17:17:39.001Z,6.90
2018-07-26T17:20:08.008Z,7.07
2018-07-26T17:22:36.238Z,6.57
2018-07-26T17:25:04.436Z,4.07
2018-07-26T17:27:32.788Z,3.10
2018-07-26T17:30:01.078Z,2.90
2018-07-26T17:32:29.442Z,3.07
2018-07-26T17:34:57.744Z,3.83
2018-07-26T17:37:26.083Z,5.00
2018-07-26T17:39:54.297Z,2.93
2018-07-26T17:42:22.507Z,3.17
2018-07-26T17:44:50.777Z,4.07
2018-07-26T17:47:19.046Z,5.93
2018-07-26T17:49:47.264Z,2.70
2018-07-26T17:52:15.562Z,4.43
2018-07-26T17:54:43.884Z,6.03
2018-07-26T17:57:12.183Z,4.27
2018-07-26T17:59:40.458Z,5.13
2018-07-26T18:02:08.767Z,2.63
2018-07-26T18:04:37.260Z,3.97
2018-07-26T18:07:05.509Z,2.37
2018-07-26T18:09:33.800Z,3.70
2018-07-26T18:12:02.097Z,3.20
2018-07-26T18:14:30.496Z,2.60
2018-07-26T18:16:58.720Z,3.90
2018-07-26T18:19:26.982Z,2.73
2018-07-26T18:21:55.217Z,2.23
2018-07-26T18:24:23.631Z,2.80
2018-07-26T18:26:51.838Z,2.50
2018-07-26T18:29:20.121Z,2.30
2018-07-26T18:31:48.444Z,4.03
2018-07-26T18:34:16.713Z,3.87
2018-07-26T18:36:45.030Z,2.33
2018-07-26T18:39:13.755Z,5.17
2018-07-26T18:41:42.078Z,2.50
2018-07-26T18:44:10.473Z,4.33
2018-07-26T18:46:39.242Z,5.27
2018-07-26T18:49:08.588Z,3.77
2018-07-26T18:51:36.834Z,3.80
2018-07-26T18:54:05.301Z,3.73
2018-07-26T18:56:33.509Z,3.50
2018-07-26T18:59:01.651Z,5.47
2018-07-26T19:01:29.866Z,8.33
2018-07-26T19:03:58.275Z,6.73
2018-07-26T19:06:26.526Z,4.73
2018-07-26T19:08:54.828Z,4.53
2018-07-26T19:11:23.109Z,2.40
2018-07-26T19:13:52.202Z,5.67
2018-07-26T19:16:20.492Z,4.10
2018-07-26T19:18:48.732Z,4.37
2018-07-26T19:21:16.973Z,5.03
2018-07-26T19:23:46.372Z,2.97
2018-07-26T19:26:14.690Z,7.00
2018-07-26T19:28:42.887Z,6.70
2018-07-26T19:31:11.116Z,3.30
2018-07-26T19:33:39.375Z,3.37
2018-07-26T19:36:07.639Z,8.13
2018-07-26T19:38:35.868Z,4.27
2018-07-26T19:41:04.220Z,5.10
2018-07-26T19:43:32.483Z,5.13
2018-07-26T19:46:00.761Z,8.17
2018-07-26T19:48:29.031Z,4.53
2018-07-26T19:50:57.614Z,6.27
2018-07-26T19:53:25.853Z,2.53
2018-07-26T19:55:54.231Z,4.37
2018-07-26T19:58:23.404Z,3.23
2018-07-26T20:00:51.680Z,2.97
2018-07-26T20:03:19.968Z,3.50
2018-07-26T20:05:48.407Z,3.40
2018-07-26T20:08:16.635Z,5.37
2018-07-26T20:10:44.985Z,4.07
2018-07-26T20:13:13.178Z,2.87
2018-07-26T20:15:41.441Z,4.73
2018-07-26T20:18:09.680Z,4.93
2018-07-26T20:20:37.628Z,7.03
2018-07-26T20:23:06.097Z,5.87
2018-07-26T20:25:38.318Z,5.73
2018-07-26T20:28:06.755Z,3.57
2018-07-26T20:30:34.996Z,14.93
2018-07-26T20:33:03.263Z,6.47
2018-07-26T20:35:31.636Z,9.73
2018-07-26T20:37:59.871Z,3.53
2018-07-26T20:40:28.188Z,4.17
2018-07-26T20:42:56.421Z,4.20
2018-07-26T20:45:24.624Z,3.23
2018-07-26T20:47:53.229Z,3.57
2018-07-26T20:50:21.494Z,3.03
2018-07-26T20:52:49.787Z,4.67
2018-07-26T20:55:18.400Z,8.40
2018-07-26T20:57:46.625Z,4.03
2018-07-26T21:00:14.862Z,4.83
2018-07-26T21:02:43.710Z,5.87
2018-07-26T21:05:12.148Z,7.67
2018-07-26T21:07:40.391Z,3.17
2018-07-26T21:10:09.628Z,6.03
2018-07-26T21:12:37.941Z,3.00
2018-07-26T21:15:07.460Z,7.40
2018-07-26T21:17:35.992Z,4.67
2018-07-26T21:20:04.817Z,9.67
2018-07-26T21:22:33.044Z,3.57
2018-07-26T21:25:01.325Z,3.20
2018-07-26T21:27:29.548Z,3.67
2018-07-26T21:29:57.713Z,3.90
2018-07-26T21:32:26.010Z,6.10
2018-07-26T21:34:55.273Z,8.17
2018-07-26T21:37:23.490Z,4.87
2018-07-26T21:39:51.936Z,5.23
2018-07-26T21:42:20.125Z,4.30
2018-07-26T21:44:48.364Z,3.27
2018-07-26T21:47:16.658Z,6.17
2018-07-26T21:49:44.954Z,4.30
2018-07-26T21:52:13.132Z,4.53
2018-07-26T21:54:41.161Z,4.13
2018-07-26T21:57:09.444Z,4.03
2018-07-26T21:59:37.650Z,4.13
2018-07-26T22:02:06.327Z,3.57
2018-07-26T22:04:34.837Z,5.20
2018-07-26T22:07:03.068Z,5.23
2018-07-26T22:09:31.413Z,10.60
2018-07-26T22:11:59.643Z,3.77
2018-07-26T22:14:27.890Z,6.77
2018-07-26T22:16:56.192Z,7.60
2018-07-26T22:19:24.482Z,7.20
2018-07-26T22:21:52.772Z,4.90
2018-07-26T22:24:21.210Z,5.47
2018-07-26T22:26:49.477Z,3.77
2018-07-26T22:29:17.784Z,5.13
2018-07-26T22:31:46.020Z,3.90
2018-07-26T22:34:14.302Z,4.70
2018-07-26T22:36:42.502Z,4.07
2018-07-26T22:39:11.612Z,4.47
2018-07-26T22:41:40.076Z,4.90
2018-07-26T22:44:08.528Z,4.77
2018-07-26T22:46:36.491Z,4.13
2018-07-26T22:49:04.780Z,3.47
2018-07-26T22:51:33.160Z,5.10
2018-07-26T22:54:02.067Z,5.30
2018-07-26T22:56:30.330Z,3.93
2018-07-26T22:58:58.631Z,6.97
2018-07-26T23:01:26.909Z,4.50
2018-07-26T23:03:55.276Z,5.80
2018-07-26T23:06:23.607Z,4.87
2018-07-26T23:08:51.894Z,3.90
2018-07-26T23:11:20.115Z,3.30
2018-07-26T23:13:48.515Z,5.17
2018-07-26T23:16:16.821Z,3.97
2018-07-26T23:18:45.089Z,2.93
2018-07-26T23:21:13.370Z,6.10
2018-07-26T23:23:41.681Z,4.53
2018-07-26T23:26:09.856Z,3.03
2018-07-26T23:28:38.115Z,4.37
2018-07-26T23:31:06.523Z,2.93
2018-07-26T23:33:34.831Z,6.03
2018-07-26T23:36:03.121Z,2.90
2018-07-26T23:38:32.315Z,3.00
2018-07-26T23:41:00.863Z,3.50
2018-07-26T23:43:29.110Z,5.63
2018-07-26T23:45:57.530Z,4.50
2018-07-26T23:48:25.739Z,3.43
2018-07-26T23:50:53.946Z,5.20
2018-07-26T23:53:23.186Z,3.10
2018-07-26T23:55:51.472Z,3.50
2018-07-26T23:58:19.647Z,2.70
